Time;durP1;ratioP1;P1;durP2;ratioP2;P2;SDS_P1;SDS_P2;PMS_P1;PMS_P2;Temp;Humidity;BMP_temperature;BMP_pressure;BME280_temperature;BME280_humidity;BME280_pressure;Samples;Min_cycle;Max_cycle;Signal;HPM_P1;HPM_P2
2021/04/26 00:00:26;;;;;;;2.25;2.05;;;;;;;3.47;51.07;99224.09;5132118;27;20523;-54
2021/04/26 00:02:53;;;;;;;3.58;2.30;;;;;;;3.46;51.10;99236.47;5132166;27;20039;-53
2021/04/26 00:05:18;;;;;;;4.20;2.40;;;;;;;3.37;50.92;99235.25;5131544;27;20039;-56
2021/04/26 00:07:44;;;;;;;3.95;2.47;;;;;;;3.33;51.27;99225.78;5132179;27;20035;-55
2021/04/26 00:10:10;;;;;;;3.90;2.20;;;;;;;3.24;51.24;99224.53;5132423;27;20027;-53
2021/04/26 00:12:36;;;;;;;4.28;2.20;;;;;;;3.22;51.47;99225.56;5132261;27;20057;-56
2021/04/26 00:15:06;;;;;;;3.30;2.33;;;;;;;3.26;51.51;99220.00;5132447;27;20042;-56
2021/04/26 00:17:31;;;;;;;2.67;1.95;;;;;;;3.20;51.74;99223.03;5132264;27;20492;-53
2021/04/26 00:19:56;;;;;;;4.10;2.38;;;;;;;3.16;51.75;99232.09;5130742;27;20045;-50
2021/04/26 00:22:22;;;;;;;3.10;2.15;;;;;;;3.14;51.69;99231.34;5132098;27;20559;-51
2021/04/26 00:24:47;;;;;;;5.38;2.72;;;;;;;2.98;51.52;99215.50;5132021;27;20422;-56
2021/04/26 00:27:13;;;;;;;5.25;2.65;;;;;;;3.04;52.14;99227.53;5132175;27;20042;-53
2021/04/26 00:29:38;;;;;;;3.63;2.30;;;;;;;3.00;52.30;99238.28;5132536;27;20110;-58
2021/04/26 00:32:04;;;;;;;4.53;2.35;;;;;;;2.95;52.63;99261.50;5127446;27;20177;-54
2021/04/26 00:34:29;;;;;;;5.88;2.30;;;;;;;2.95;52.30;99256.22;5129987;27;20042;-58
2021/04/26 00:36:55;;;;;;;3.28;2.50;;;;;;;2.90;52.30;99237.13;5129968;27;20035;-57
2021/04/26 00:39:20;;;;;;;3.25;2.35;;;;;;;2.87;52.11;99245.22;5131412;27;20504;-55
2021/04/26 00:41:46;;;;;;;6.00;2.75;;;;;;;2.51;52.42;99172.41;5131742;27;20088;-55
2021/04/26 00:44:11;;;;;;;4.82;2.22;;;;;;;2.93;52.57;99249.31;5132424;27;20038;-59
2021/04/26 00:46:37;;;;;;;3.95;2.58;;;;;;;2.91;52.57;99254.69;5132186;27;20041;-58
2021/04/26 00:49:03;;;;;;;4.68;2.33;;;;;;;2.90;52.49;99250.34;5131550;27;20043;-57
2021/04/26 00:51:28;;;;;;;5.18;2.55;;;;;;;2.86;52.63;99246.16;5131245;27;20070;-60
2021/04/26 00:53:54;;;;;;;4.15;2.58;;;;;;;2.87;52.87;99248.72;5131659;27;20407;-57
2021/04/26 00:56:20;;;;;;;3.90;2.15;;;;;;;2.96;52.51;99260.56;5132165;27;20087;-56
2021/04/26 00:58:45;;;;;;;3.88;2.42;;;;;;;2.89;52.74;99247.78;5131713;27;20041;-53
2021/04/26 01:01:11;;;;;;;4.30;2.72;;;;;;;2.83;52.36;99241.06;5131345;27;20092;-51
2021/04/26 01:03:37;;;;;;;4.60;2.80;;;;;;;2.91;52.89;99270.56;5131673;27;20035;-56
2021/04/26 01:06:03;;;;;;;4.38;2.97;;;;;;;2.56;52.59;99212.63;5131193;27;20035;-57
2021/04/26 01:08:28;;;;;;;5.07;2.88;;;;;;;2.84;52.83;99269.19;5130986;27;20121;-57
2021/04/26 01:10:55;;;;;;;5.45;3.00;;;;;;;2.82;52.47;99266.66;5131058;27;20213;-60
2021/04/26 01:13:43;;;;;;;3.45;2.85;;;;;;;2.86;53.30;99267.31;5131310;27;20027;-55
2021/04/26 01:16:47;;;;;;;4.32;2.90;;;;;;;2.86;53.08;99262.03;5130263;27;20041;-59
2021/04/26 01:19:50;;;;;;;4.78;2.88;;;;;;;2.85;53.20;99258.53;5089056;27;20058;-58
2021/04/26 01:22:50;;;;;;;4.40;2.92;;;;;;;2.77;53.16;99250.19;5131065;27;20034;-56
2021/04/26 01:25:18;;;;;;;3.90;2.63;;;;;;;2.80;52.86;99281.75;5087413;27;20050;-55
2021/04/26 01:27:46;;;;;;;5.85;3.10;;;;;;;2.78;53.28;99264.25;5131120;27;20129;-58
2021/04/26 01:30:21;;;;;;;4.60;3.13;;;;;;;2.75;53.44;99273.22;5130552;28;20081;-58
2021/04/26 01:32:57;;;;;;;5.03;3.25;;;;;;;2.61;53.68;99262.59;5131415;27;20035;-59
2021/04/26 01:35:24;;;;;;;4.95;3.05;;;;;;;2.65;53.04;99279.97;5131153;27;20031;-56
2021/04/26 01:37:54;;;;;;;6.30;3.40;;;;;;;2.60;53.40;99269.66;5129979;28;20035;-58
2021/04/26 01:40:21;;;;;;;5.50;3.40;;;;;;;2.60;53.52;99277.59;5130991;27;20080;-56
2021/04/26 01:42:50;;;;;;;5.65;3.10;;;;;;;2.57;53.38;99283.03;5130660;27;20499;-60
2021/04/26 01:45:17;;;;;;;6.47;3.38;;;;;;;2.13;53.53;99208.81;5130978;27;20023;-57
2021/04/26 01:47:45;;;;;;;6.57;3.75;;;;;;;2.58;53.90;99279.47;5131139;27;20115;-54
2021/04/26 01:50:12;;;;;;;5.55;3.45;;;;;;;2.59;53.55;99286.44;5131367;27;20039;-58
2021/04/26 01:52:38;;;;;;;7.80;3.40;;;;;;;2.52;53.72;99272.72;5131292;27;20042;-56
2021/04/26 01:55:06;;;;;;;4.65;3.20;;;;;;;2.56;54.11;99297.19;5130772;27;20027;-58
2021/04/26 01:57:32;;;;;;;6.90;3.63;;;;;;;2.55;53.66;99285.78;5130583;27;20062;-56
2021/04/26 02:00:06;;;;;;;6.45;3.80;;;;;;;2.55;54.16;99284.94;5130985;27;20487;-59
2021/04/26 02:02:34;;;;;;;6.78;3.40;;;;;;;2.48;54.22;99284.41;5130997;27;20031;-58
2021/04/26 02:05:00;;;;;;;6.40;3.40;;;;;;;2.50;54.23;99277.25;5131178;27;20055;-56
2021/04/26 02:07:27;;;;;;;6.43;3.60;;;;;;;2.46;54.18;99280.16;5130290;27;20031;-57
2021/04/26 02:09:54;;;;;;;4.80;3.22;;;;;;;2.48;54.01;99281.78;5130493;27;20547;-60
2021/04/26 02:12:20;;;;;;;8.27;3.72;;;;;;;2.37;54.25;99255.09;5130434;27;20104;-58
2021/04/26 02:14:46;;;;;;;4.57;3.33;;;;;;;2.52;54.46;99280.66;5130647;27;20495;-56
2021/04/26 02:17:12;;;;;;;8.30;4.05;;;;;;;2.50;54.57;99281.69;5131199;27;20038;-56
2021/04/26 02:19:38;;;;;;;5.75;3.97;;;;;;;2.47;54.33;99266.00;5130857;27;20034;-57
2021/04/26 02:22:04;;;;;;;5.90;3.97;;;;;;;2.49;54.35;99283.47;5130947;27;20047;-56
2021/04/26 02:24:29;;;;;;;4.43;3.38;;;;;;;2.51;54.82;99278.13;5132943;27;20083;-55
2021/04/26 02:26:58;;;;;;;7.30;3.92;;;;;;;2.52;54.76;99274.53;5132872;27;20042;-58
2021/04/26 02:29:24;;;;;;;5.80;4.25;;;;;;;2.52;54.18;99280.66;5134141;27;20519;-50
2021/04/26 02:31:51;;;;;;;7.55;3.78;;;;;;;2.57;54.53;99283.03;5134537;27;20035;-56
2021/04/26 02:34:31;;;;;;;5.88;4.25;;;;;;;2.64;54.71;99288.84;5134357;27;20571;-53
2021/04/26 02:37:04;;;;;;;6.45;4.53;;;;;;;2.53;54.51;99263.03;5134447;27;20074;-58
2021/04/26 02:39:32;;;;;;;5.80;4.03;;;;;;;2.65;54.34;99302.00;5133197;27;20083;-56
2021/04/26 02:41:59;;;;;;;6.25;3.92;;;;;;;2.66;54.30;99285.19;5134639;27;20039;-54
2021/04/26 02:44:27;;;;;;;5.80;4.15;;;;;;;2.62;54.22;99267.78;5134021;27;20126;-55
2021/04/26 02:47:01;;;;;;;11.80;4.28;;;;;;;2.76;54.50;99288.13;5132351;27;20090;-53
2021/04/26 02:49:28;;;;;;;5.70;3.92;;;;;;;2.83;54.07;99288.63;5133527;27;20131;-52
2021/04/26 02:51:53;;;;;;;10.73;4.40;;;;;;;2.93;53.57;99289.84;5134596;27;20414;-54
2021/04/26 02:54:21;;;;;;;7.10;4.32;;;;;;;3.02;53.70;99299.03;5134461;27;20039;-57
2021/04/26 02:56:49;;;;;;;7.40;4.65;;;;;;;3.07;53.38;99285.53;5133528;27;20039;-54
2021/04/26 02:59:19;;;;;;;6.93;4.60;;;;;;;3.13;53.29;99301.91;5134275;27;20046;-59
2021/04/26 03:01:46;;;;;;;6.60;4.10;;;;;;;3.16;53.21;99298.22;5134217;27;20035;-55
2021/04/26 03:04:12;;;;;;;6.25;4.38;;;;;;;3.19;53.60;99292.75;5115361;27;20088;-59
2021/04/26 03:06:39;;;;;;;11.27;4.40;;;;;;;3.22;53.39;99300.50;5131717;27;20042;-53
2021/04/26 03:09:05;;;;;;;6.20;4.10;;;;;;;3.24;53.52;99308.34;5133714;27;20202;-59
2021/04/26 03:11:31;;;;;;;6.32;4.35;;;;;;;3.20;53.30;99285.66;5133980;27;20031;-58
2021/04/26 03:13:59;;;;;;;6.72;4.50;;;;;;;3.41;53.04;99302.91;5133261;27;20034;-55
2021/04/26 03:16:27;;;;;;;9.68;4.63;;;;;;;3.14;52.75;99248.03;5133167;27;20035;-55
2021/04/26 03:18:52;;;;;;;8.30;4.80;;;;;;;3.43;52.90;99298.38;5133568;27;20031;-54
2021/04/26 03:21:19;;;;;;;6.75;3.92;;;;;;;3.59;52.11;99302.75;5133451;27;20169;-54
2021/04/26 03:23:44;;;;;;;7.15;4.43;;;;;;;3.56;52.23;99281.78;5133405;27;20400;-54
2021/04/26 03:26:10;;;;;;;7.32;4.97;;;;;;;3.75;51.94;99307.16;5133104;27;20488;-55
2021/04/26 03:28:40;;;;;;;9.93;4.53;;;;;;;3.82;51.91;99311.94;5133096;27;20043;-58
2021/04/26 03:31:07;;;;;;;6.25;4.57;;;;;;;3.90;51.97;99321.25;5133427;27;20035;-56
2021/04/26 03:33:34;;;;;;;8.45;4.32;;;;;;;3.96;51.57;99310.25;5133547;27;20080;-55
2021/04/26 03:36:00;;;;;;;7.43;4.93;;;;;;;4.01;51.40;99311.69;5132375;27;20038;-57
2021/04/26 03:38:27;;;;;;;6.05;4.07;;;;;;;3.81;51.31;99248.50;5133142;27;20043;-58
2021/04/26 03:40:54;;;;;;;8.02;4.50;;;;;;;4.30;51.21;99301.06;5132901;27;20091;-57
2021/04/26 03:43:20;;;;;;;7.25;5.10;;;;;;;5.63;48.54;99303.09;5132801;27;20031;-61
2021/04/26 03:45:46;;;;;;;6.57;5.07;;;;;;;7.43;44.83;99309.75;5131557;27;20164;-52
2021/04/26 03:48:12;;;;;;;9.80;6.13;;;;;;;9.05;41.07;99310.47;5132717;27;20092;-51
2021/04/26 03:50:37;;;;;;;6.10;4.60;;;;;;;10.40;38.33;99285.69;5132757;27;20196;-55
2021/04/26 03:53:03;;;;;;;8.45;4.70;;;;;;;11.71;36.11;99306.06;5132767;27;20476;-56
2021/04/26 03:55:28;;;;;;;5.95;4.68;;;;;;;12.76;34.08;99301.44;5132516;27;20581;-58
2021/04/26 03:57:54;;;;;;;6.78;4.38;;;;;;;13.74;32.40;99296.28;5131636;27;20091;-60
2021/04/26 04:00:21;;;;;;;9.27;4.55;;;;;;;14.64;30.48;99300.44;5132897;27;20039;-55
2021/04/26 04:02:48;;;;;;;6.82;4.20;;;;;;;15.49;29.43;99298.59;5132873;27;20046;-58
2021/04/26 04:05:14;;;;;;;5.00;4.00;;;;;;;15.68;28.08;99250.69;5132909;27;20070;-59
2021/04/26 04:07:39;;;;;;;6.55;4.07;;;;;;;16.35;27.12;99308.91;5132203;27;20035;-62
2021/04/26 04:10:07;;;;;;;5.80;3.72;;;;;;;16.86;26.63;99307.66;5132653;27;20058;-54
2021/04/26 04:12:33;;;;;;;4.85;3.72;;;;;;;17.44;25.85;99291.91;5132294;27;20516;-58
2021/04/26 04:15:00;;;;;;;5.22;3.80;;;;;;;18.36;24.71;99300.03;5132494;27;20066;-62
2021/04/26 04:17:26;;;;;;;7.10;4.10;;;;;;;19.27;23.30;99301.50;5132224;27;20412;-57
2021/04/26 04:19:52;;;;;;;4.05;3.38;;;;;;;19.81;22.54;99291.13;5131996;27;20035;-54
2021/04/26 04:22:17;;;;;;;5.82;4.28;;;;;;;20.39;22.09;99292.75;5132573;27;20367;-63
2021/04/26 04:24:43;;;;;;;6.88;4.38;;;;;;;20.89;21.32;99302.63;5132283;27;20038;-60
2021/04/26 04:27:09;;;;;;;4.95;3.63;;;;;;;20.90;20.82;99219.94;5131904;27;20122;-59
2021/04/26 04:29:34;;;;;;;5.93;4.03;;;;;;;21.65;20.14;99287.06;5132055;27;20053;-60
2021/04/26 04:32:00;;;;;;;4.72;4.03;;;;;;;21.56;19.64;99231.94;5132402;27;20038;-61
2021/04/26 04:34:25;;;;;;;3.85;3.45;;;;;;;22.10;19.48;99242.75;5131750;27;20406;-61
2021/04/26 04:36:52;;;;;;;5.03;3.88;;;;;;;22.67;18.90;99288.56;5132599;27;20521;-61
2021/04/26 04:39:17;;;;;;;5.85;3.88;;;;;;;22.89;18.56;99293.66;5131880;27;20491;-61
2021/04/26 04:41:43;;;;;;;5.35;4.13;;;;;;;23.22;17.97;99265.34;5132202;27;20065;-61
2021/04/26 04:44:08;;;;;;;6.85;3.70;;;;;;;24.15;17.45;99298.44;5131879;27;20373;-62
2021/04/26 04:46:34;;;;;;;5.30;3.67;;;;;;;24.31;16.53;99263.34;5130967;27;20457;-62
2021/04/26 04:49:00;;;;;;;3.55;3.25;;;;;;;24.55;16.56;99278.00;5131724;27;20043;-62
2021/04/26 04:51:25;;;;;;;5.20;3.42;;;;;;;24.99;16.23;99294.28;5131622;27;20479;-61
2021/04/26 04:53:53;;;;;;;3.45;3.10;;;;;;;25.34;15.17;99279.91;5131749;27;20155;-63
2021/04/26 04:56:18;;;;;;;5.40;3.38;;;;;;;25.83;15.30;99294.50;5132105;27;20160;-61
2021/04/26 04:58:44;;;;;;;3.58;3.20;;;;;;;26.05;14.96;99294.78;5131235;27;20536;-62
2021/04/26 05:01:09;;;;;;;5.03;3.30;;;;;;;26.39;14.42;99305.13;5131382;27;20047;-61
2021/04/26 05:03:35;;;;;;;5.32;3.70;;;;;;;26.62;13.98;99288.59;5131478;27;20042;-59
2021/04/26 05:06:00;;;;;;;6.30;3.65;;;;;;;26.80;13.73;99300.47;5131559;27;20062;-61
2021/04/26 05:08:25;;;;;;;6.95;3.30;;;;;;;27.08;13.70;99302.44;5130886;27;20050;-60
2021/04/26 05:10:51;;;;;;;3.83;3.00;;;;;;;27.64;13.23;99298.22;5131343;27;20037;-61
2021/04/26 05:13:17;;;;;;;3.00;2.72;;;;;;;27.92;12.71;99238.66;5131503;27;20035;-62
2021/04/26 05:15:43;;;;;;;5.13;2.55;;;;;;;28.73;12.20;99292.31;5131535;27;20475;-61
2021/04/26 05:18:09;;;;;;;4.75;2.45;;;;;;;28.82;11.80;99247.81;5131014;27;20497;-62
2021/04/26 05:20:35;;;;;;;5.13;2.67;;;;;;;29.28;11.67;99303.41;5130475;27;20035;-60
2021/04/26 05:23:01;;;;;;;5.72;2.85;;;;;;;29.82;11.47;99306.38;5131284;27;20484;-59
2021/04/26 05:25:26;;;;;;;4.03;2.70;;;;;;;30.28;10.81;99298.41;5131263;27;20030;-61
2021/04/26 05:27:52;;;;;;;4.78;2.25;;;;;;;30.89;10.38;99297.00;5131210;27;20042;-61
2021/04/26 05:30:18;;;;;;;3.53;2.40;;;;;;;31.17;9.85;99285.75;5130969;27;20042;-63
2021/04/26 05:32:44;;;;;;;4.18;2.45;;;;;;;31.36;9.70;99295.19;5129479;27;20042;-61
2021/04/26 05:35:10;;;;;;;5.03;2.38;;;;;;;31.54;9.49;99300.47;5130977;27;20023;-59
2021/04/26 05:37:35;;;;;;;4.20;2.15;;;;;;;31.72;9.52;99302.69;5130958;27;20050;-61
2021/04/26 05:40:01;;;;;;;5.15;2.05;;;;;;;31.84;9.09;99271.13;5130368;27;20035;-61
2021/04/26 05:42:26;;;;;;;3.53;2.30;;;;;;;32.62;9.11;99305.00;5129360;28;20083;-61
2021/04/26 05:44:52;;;;;;;2.03;1.83;;;;;;;33.06;8.30;99306.19;5131035;27;20027;-61
2021/04/26 05:47:17;;;;;;;2.65;1.95;;;;;;;33.67;8.02;99308.81;5130610;27;20101;-61
2021/04/26 05:49:43;;;;;;;6.15;2.22;;;;;;;33.62;7.76;99310.50;5130958;27;20167;-62
2021/04/26 05:52:09;;;;;;;3.83;2.03;;;;;;;33.18;8.50;99280.84;5129226;28;20042;-60
2021/04/26 05:54:34;;;;;;;3.47;1.95;;;;;;;33.72;7.65;99305.97;5130560;27;20039;-61
2021/04/26 05:57:00;;;;;;;3.00;2.00;;;;;;;34.02;7.58;99268.78;5130785;27;20031;-60
2021/04/26 05:59:25;;;;;;;5.90;2.60;;;;;;;34.56;7.38;99299.31;5133397;27;20046;-62
2021/04/26 06:01:51;;;;;;;3.90;2.00;;;;;;;34.76;7.03;99300.16;5134169;27;20034;-60
2021/04/26 06:04:16;;;;;;;5.10;2.00;;;;;;;34.63;7.12;99285.91;5134711;27;20046;-61
2021/04/26 06:06:42;;;;;;;3.28;1.90;;;;;;;34.87;7.15;99256.38;5135069;27;20057;-60
2021/04/26 06:09:07;;;;;;;4.72;1.80;;;;;;;35.69;6.60;99284.06;5134640;27;20399;-60
2021/04/26 06:11:33;;;;;;;2.72;1.58;;;;;;;36.04;6.41;99290.94;5134521;27;20027;-65
2021/04/26 06:13:58;;;;;;;2.92;1.80;;;;;;;36.49;6.14;99290.34;5134476;27;20049;-60
2021/04/26 06:16:24;;;;;;;3.45;1.83;;;;;;;36.98;5.64;99280.66;5134796;27;20037;-60
2021/04/26 06:18:49;;;;;;;2.67;1.63;;;;;;;37.38;5.56;99254.91;5133976;27;20058;-61
2021/04/26 06:21:15;;;;;;;2.38;1.65;;;;;;;37.82;5.21;99286.75;5134693;27;20070;-61
2021/04/26 06:23:40;;;;;;;6.95;1.83;;;;;;;38.14;4.89;99273.63;5132893;27;20042;-60
2021/04/26 06:26:06;;;;;;;4.15;1.98;;;;;;;38.45;4.94;99297.09;5134023;27;20117;-61
2021/04/26 06:28:31;;;;;;;3.28;1.60;;;;;;;38.49;4.83;99286.94;5134436;27;20038;-61
2021/04/26 06:30:57;;;;;;;7.03;1.88;;;;;;;38.61;4.90;99289.09;5133229;27;20035;-60
2021/04/26 06:33:22;;;;;;;2.88;1.50;;;;;;;39.11;4.38;99306.63;5133925;27;20470;-62
2021/04/26 06:35:50;;;;;;;2.90;1.55;;;;;;;38.09;4.62;99298.09;5134223;27;20857;-61
2021/04/26 06:38:16;;;;;;;1.67;1.50;;;;;;;38.19;4.50;99269.84;5134034;27;20031;-57
2021/04/26 06:40:42;;;;;;;1.70;1.60;;;;;;;38.56;4.39;99298.44;5134420;27;20488;-60
2021/04/26 06:43:08;;;;;;;2.47;1.40;;;;;;;38.65;4.21;99317.22;5134551;27;20035;-61
2021/04/26 06:45:34;;;;;;;3.40;2.45;;;;;;;38.54;4.23;99311.09;5132965;27;20099;-62
2021/04/26 06:48:00;;;;;;;3.15;2.85;;;;;;;38.39;4.12;99304.78;5133781;27;20491;-61
2021/04/26 06:50:26;;;;;;;4.70;1.55;;;;;;;38.08;4.56;99314.03;5134033;27;20504;-62
2021/04/26 06:52:55;;;;;;;3.40;1.70;;;;;;;37.92;4.48;99325.59;5133769;27;20035;-61
2021/04/26 06:55:23;;;;;;;2.97;1.42;;;;;;;37.89;4.67;99326.25;5133245;27;20043;-61
2021/04/26 06:57:49;;;;;;;3.92;1.77;;;;;;;37.41;4.23;99313.72;5133581;27;20079;-59
2021/04/26 07:00:15;;;;;;;3.75;2.05;;;;;;;37.70;4.52;99314.47;5133566;27;20154;-58
2021/04/26 07:02:41;;;;;;;3.35;1.73;;;;;;;38.85;4.36;99305.41;5133861;27;20031;-57
2021/04/26 07:05:08;;;;;;;2.70;1.90;;;;;;;40.40;3.25;99321.09;5131880;27;20031;-62
2021/04/26 07:07:34;;;;;;;1.63;1.48;;;;;;;39.30;3.47;99276.28;5128676;27;20048;-60
2021/04/26 07:09:59;;;;;;;6.30;1.88;;;;;;;38.72;3.92;99318.38;5130621;27;20453;-59
2021/04/26 07:12:25;;;;;;;3.95;1.42;;;;;;;38.99;3.59;99322.06;5132051;27;20037;-61
2021/04/26 07:14:51;;;;;;;7.07;1.75;;;;;;;38.69;4.02;99330.22;5130946;27;20035;-63
2021/04/26 07:17:17;;;;;;;3.38;1.73;;;;;;;35.75;4.97;99332.97;5133347;27;20035;-60
2021/04/26 07:19:43;;;;;;;3.00;1.95;;;;;;;31.29;7.21;99330.56;5132928;27;20027;-61
2021/04/26 07:22:08;;;;;;;2.13;1.63;;;;;;;28.46;9.00;99325.28;5131884;27;20125;-62
2021/04/26 07:24:34;;;;;;;2.10;1.65;;;;;;;27.61;9.43;99339.94;5136244;27;20034;-60
2021/04/26 07:26:59;;;;;;;2.42;1.70;;;;;;;28.96;8.73;99312.44;5153213;27;20043;-61
2021/04/26 07:29:25;;;;;;;1.70;1.60;;;;;;;27.71;9.58;99309.03;5151378;27;20035;-65
2021/04/26 07:31:50;;;;;;;5.90;1.40;;;;;;;25.90;10.48;99328.97;5126827;27;20031;-56
2021/04/26 07:34:16;;;;;;;3.72;1.40;;;;;;;24.96;11.24;99305.72;5122361;27;20042;-61
2021/04/26 07:36:41;;;;;;;1.88;1.63;;;;;;;25.13;11.36;99313.28;5132142;27;20039;-56
2021/04/26 07:39:08;;;;;;;3.33;1.80;;;;;;;27.22;10.04;99332.34;5132043;27;20492;-55
2021/04/26 07:41:34;;;;;;;4.05;2.78;;;;;;;29.89;8.42;99346.41;5132333;27;20035;-54
2021/04/26 07:44:00;;;;;;;3.58;1.80;;;;;;;30.33;7.65;99326.03;5131746;27;20023;-60
2021/04/26 07:46:26;;;;;;;3.38;1.70;;;;;;;27.82;8.91;99200.84;5131199;27;20415;-61
2021/04/26 07:48:51;;;;;;;1.80;1.70;;;;;;;27.59;8.75;99322.84;5123454;27;20046;-56
2021/04/26 07:51:17;;;;;;;2.58;1.80;;;;;;;26.87;9.57;99317.66;5123513;27;20042;-60
2021/04/26 07:53:42;;;;;;;4.57;2.25;;;;;;;26.25;10.25;99293.56;5131748;27;20035;-54
2021/04/26 07:56:08;;;;;;;5.90;3.53;;;;;;;24.30;10.91;99330.91;5129716;27;20034;-60
2021/04/26 07:58:34;;;;;;;4.43;2.30;;;;;;;21.72;12.51;99345.09;5121995;27;20039;-59
2021/04/26 08:01:20;;;;;;;2.55;1.92;;;;;;;21.02;13.01;99285.47;5086169;27;20047;-61
2021/04/26 08:04:06;;;;;;;4.13;1.80;;;;;;;20.62;13.61;99348.72;5092086;27;20532;-59
2021/04/26 08:06:53;;;;;;;2.75;1.90;;;;;;;20.16;14.01;99345.53;5093727;28;20092;-54
2021/04/26 08:09:40;;;;;;;5.38;1.80;;;;;;;19.55;14.52;99352.31;5083445;27;20495;-60
2021/04/26 08:12:26;;;;;;;4.63;1.85;;;;;;;19.16;15.03;99340.03;5100317;27;20039;-62
2021/04/26 08:15:12;;;;;;;5.38;2.03;;;;;;;18.61;15.38;99352.06;5088666;27;20488;-63
2021/04/26 08:17:58;;;;;;;5.30;2.05;;;;;;;17.43;16.45;99302.94;5075395;27;20488;-57
2021/04/26 08:20:44;;;;;;;5.50;2.15;;;;;;;16.69;17.56;99336.66;5066360;28;20511;-57
2021/04/26 08:23:31;;;;;;;6.65;2.10;;;;;;;16.15;18.46;99339.00;5081678;28;20047;-59
2021/04/26 08:26:17;;;;;;;5.35;2.45;;;;;;;15.64;18.86;99350.84;5072129;27;20404;-55
2021/04/26 08:29:03;;;;;;;;;;;;;;;15.87;18.06;99344.78;5088784;27;20095;-59
2021/04/26 08:31:49;;;;;;;2.75;1.80;;;;;;;14.76;19.29;99311.78;5100860;27;19915;-56
2021/04/26 08:34:35;;;;;;;2.58;2.00;;;;;;;14.54;19.93;99346.38;5074209;27;20043;-61
2021/04/26 08:37:22;;;;;;;4.18;2.00;;;;;;;14.15;20.34;99334.22;5087556;28;20040;-62
2021/04/26 08:40:09;;;;;;;3.10;2.00;;;;;;;14.17;20.67;99337.59;5060581;27;20084;-62
2021/04/26 08:43:00;;;;;;;3.42;2.08;;;;;;;14.40;20.50;99331.66;5078937;28;20046;-57
2021/04/26 08:45:46;;;;;;;3.33;2.10;;;;;;;14.60;19.82;99332.28;5067513;28;20047;-64
2021/04/26 08:48:33;;;;;;;3.38;2.03;;;;;;;14.47;20.21;99337.25;5082119;27;20065;-54
2021/04/26 08:51:18;;;;;;;2.50;2.05;;;;;;;14.57;20.18;99331.75;5073159;28;20131;-59
2021/04/26 08:54:05;;;;;;;2.30;2.00;;;;;;;14.74;19.82;99344.31;5097990;27;20036;-56
2021/04/26 08:56:51;;;;;;;4.80;2.10;;;;;;;15.05;19.93;99342.84;5080925;28;20500;-58
2021/04/26 08:59:42;;;;;;;4.15;2.00;;;;;;;15.13;19.86;99324.03;5073760;27;20084;-59
2021/04/26 09:02:27;;;;;;;8.32;2.00;;;;;;;14.85;20.49;99334.22;5100080;27;20039;-57
2021/04/26 09:04:56;;;;;;;4.65;2.10;;;;;;;14.38;21.08;99303.22;5129901;27;20455;-58
2021/04/26 09:07:23;;;;;;;5.07;2.05;;;;;;;14.56;21.47;99344.34;5129720;27;20039;-57
2021/04/26 09:09:53;;;;;;;2.80;2.25;;;;;;;14.83;21.84;99352.41;5115740;27;20172;-59
2021/04/26 09:12:21;;;;;;;7.18;1.85;;;;;;;15.17;21.42;99349.66;5128892;27;20474;-60
2021/04/26 09:14:52;;;;;;;6.78;2.47;;;;;;;15.27;21.08;99362.13;5117675;27;20054;-56
2021/04/26 09:17:37;;;;;;;4.93;2.35;;;;;;;15.31;21.17;99356.25;5130295;27;20085;-60
2021/04/26 09:20:14;;;;;;;5.18;2.00;;;;;;;15.12;20.77;99359.22;5128488;27;20220;-62
2021/04/26 09:22:42;;;;;;;5.03;1.80;;;;;;;15.02;20.95;99357.53;5130554;27;20035;-58
2021/04/26 09:25:29;;;;;;;3.72;2.17;;;;;;;15.10;20.75;99355.84;5119219;27;20041;-58
2021/04/26 09:28:03;;;;;;;4.50;1.85;;;;;;;15.24;20.91;99355.22;5116858;27;20126;-58
2021/04/26 09:30:34;;;;;;;4.37;2.00;;;;;;;15.49;20.44;99352.56;5130362;27;20046;-63
2021/04/26 09:33:42;;;;;;;3.90;1.92;;;;;;;15.79;20.58;99342.94;5130336;27;20457;-63
2021/04/26 09:36:19;;;;;;;4.68;2.00;;;;;;;15.89;20.16;99344.66;5128045;27;20031;-63
2021/04/26 09:38:48;;;;;;;3.63;2.00;;;;;;;15.78;20.37;99340.41;5117234;28;20039;-60
2021/04/26 09:41:23;;;;;;;4.10;2.17;;;;;;;15.74;20.54;99352.56;5118403;27;20042;-62
2021/04/26 09:43:53;;;;;;;4.82;2.13;;;;;;;15.72;20.09;99358.13;5125101;28;20059;-65
2021/04/26 09:46:20;;;;;;;2.70;2.15;;;;;;;15.77;19.98;99357.63;5113770;28;20039;-62
2021/04/26 09:48:46;;;;;;;3.13;1.92;;;;;;;15.71;19.72;99355.59;5129586;27;20063;-63
2021/04/26 09:51:21;;;;;;;1.90;1.65;;;;;;;15.70;19.92;99360.13;5118326;27;20047;-62
2021/04/26 09:53:55;;;;;;;5.20;1.80;;;;;;;15.77;19.90;99360.31;5125834;27;20579;-61
2021/04/26 09:56:24;;;;;;;2.50;1.73;;;;;;;15.79;19.72;99353.75;5118584;28;20046;-60
2021/04/26 09:58:55;;;;;;;1.45;1.30;;;;;;;15.83;19.74;99358.81;5117897;28;20091;-56
2021/04/26 10:01:21;;;;;;;1.75;1.60;;;;;;;15.84;19.78;99347.81;5129909;27;20035;-63
2021/04/26 10:03:48;;;;;;;3.42;2.00;;;;;;;15.77;19.93;99347.66;5113719;27;20356;-59
2021/04/26 10:06:15;;;;;;;3.75;1.90;;;;;;;15.72;20.30;99346.50;5128225;28;20506;-61
2021/04/26 10:08:44;;;;;;;3.67;1.95;;;;;;;15.69;20.35;99355.75;5122343;27;20081;-59
2021/04/26 10:11:11;;;;;;;3.67;1.80;;;;;;;15.69;20.42;99363.03;5119441;28;20039;-61
2021/04/26 10:13:37;;;;;;;3.40;1.60;;;;;;;15.53;20.23;99359.31;5130327;27;20115;-62
2021/04/26 10:16:04;;;;;;;6.50;1.92;;;;;;;15.42;20.67;99379.34;5113085;27;20040;-61
2021/04/26 10:18:36;;;;;;;3.00;2.20;;;;;;;15.13;21.17;99364.47;5124304;27;20557;-62
2021/04/26 10:21:17;;;;;;;2.83;2.00;;;;;;;14.56;21.27;99336.28;5118945;28;20035;-62
2021/04/26 10:23:45;;;;;;;2.92;1.70;;;;;;;14.20;22.02;99360.69;5130259;27;20035;-62
2021/04/26 10:26:42;;;;;;;4.13;1.75;;;;;;;14.03;22.71;99379.41;5129703;27;20401;-57
2021/04/26 10:29:23;;;;;;;6.25;1.88;;;;;;;13.80;22.92;99379.06;5128222;28;20063;-63
2021/04/26 10:32:00;;;;;;;4.75;1.67;;;;;;;13.82;23.23;99387.84;5112667;27;20043;-62
2021/04/26 10:34:26;;;;;;;5.13;1.70;;;;;;;13.92;23.31;99387.75;5119587;28;20047;-62
2021/04/26 10:36:54;;;;;;;5.10;1.77;;;;;;;14.24;22.86;99380.88;5117360;28;20135;-63
2021/04/26 10:39:21;;;;;;;3.42;1.90;;;;;;;14.69;22.15;99383.47;5129458;27;20031;-62
2021/04/26 10:41:50;;;;;;;3.78;1.95;;;;;;;15.04;21.83;99384.31;5113116;27;20096;-60
2021/04/26 10:44:41;;;;;;;4.22;1.80;;;;;;;15.33;21.49;99378.50;5126585;27;20039;-64
2021/04/26 10:47:23;;;;;;;4.30;1.75;;;;;;;15.30;21.36;99380.66;5112881;27;20051;-62
2021/04/26 10:50:12;;;;;;;1.67;1.50;;;;;;;15.06;21.25;99380.44;5114440;27;20404;-57
2021/04/26 10:52:54;;;;;;;3.72;2.17;;;;;;;14.96;21.19;99377.06;5119071;27;20433;-63
2021/04/26 10:55:20;;;;;;;2.08;1.73;;;;;;;14.62;21.73;99372.50;5132702;27;20027;-63
2021/04/26 10:57:56;;;;;;;2.95;2.00;;;;;;;14.14;22.34;99386.38;5118211;27;20541;-59
2021/04/26 11:00:32;;;;;;;5.53;2.45;;;;;;;13.72;22.95;99389.75;5122251;27;20039;-58
2021/04/26 11:03:10;;;;;;;4.90;2.15;;;;;;;13.55;23.64;99392.31;5129620;27;20046;-65
2021/04/26 11:05:43;;;;;;;2.13;1.70;;;;;;;12.91;24.50;99335.84;5114746;27;21379;-59
2021/04/26 11:08:47;;;;;;;3.33;1.83;;;;;;;13.10;24.75;99382.41;5122158;27;20031;-68
2021/04/26 11:11:17;;;;;;;3.20;1.67;;;;;;;12.99;24.58;99370.84;5122815;27;20039;-62
2021/04/26 11:13:58;;;;;;;1.80;1.52;;;;;;;13.48;24.27;99377.78;5132926;27;20508;-57
2021/04/26 11:16:53;;;;;;;2.38;1.70;;;;;;;14.11;23.53;99381.31;5131222;27;20023;-60
2021/04/26 11:19:18;;;;;;;2.55;1.70;;;;;;;13.98;22.89;99362.03;5132346;27;20034;-60
2021/04/26 11:21:44;;;;;;;4.70;2.17;;;;;;;14.12;22.54;99379.47;5132589;27;20027;-59
2021/04/26 11:24:10;;;;;;;3.65;1.95;;;;;;;13.97;22.28;99373.78;5132494;27;20476;-63
2021/04/26 11:26:36;;;;;;;3.45;2.10;;;;;;;13.81;22.22;99353.84;5132150;27;20460;-55
2021/04/26 11:29:02;;;;;;;4.53;2.22;;;;;;;13.95;22.47;99368.59;5124633;27;20034;-61
2021/04/26 11:31:45;;;;;;;4.40;1.90;;;;;;;14.23;22.60;99373.81;5117388;27;20071;-64
2021/04/26 11:34:13;;;;;;;3.30;1.67;;;;;;;14.21;22.69;99370.44;5131968;27;20031;-62
2021/04/26 11:36:39;;;;;;;1.92;1.63;;;;;;;14.25;22.81;99381.75;5131729;27;20052;-63
2021/04/26 11:39:08;;;;;;;4.25;1.90;;;;;;;14.29;22.94;99375.03;5131001;27;20035;-63
2021/04/26 11:41:44;;;;;;;4.63;1.88;;;;;;;14.35;22.71;99352.84;5132368;27;20035;-62
2021/04/26 11:44:10;;;;;;;5.10;2.25;;;;;;;14.49;22.72;99370.25;5115091;27;20125;-63
2021/04/26 11:46:36;;;;;;;2.67;2.25;;;;;;;14.09;22.57;99299.88;5125348;27;20122;-59
2021/04/26 11:49:12;;;;;;;3.25;1.98;;;;;;;14.26;22.95;99305.34;5123994;27;20108;-58
2021/04/26 11:51:38;;;;;;;4.82;1.90;;;;;;;14.44;22.84;99370.72;5132281;27;20031;-64